sensor_id;sensor_type;location;lat;lon;timestamp;P1;durP1;ratioP1;P2;durP2;ratioP2
20415;SDS011;10367;52.202;5.996;2022-07-10T00:00:33;15.97;;;13.57;;
20415;SDS011;10367;52.202;5.996;2022-07-10T00:03:02;14.83;;;13.33;;
20415;SDS011;10367;52.202;5.996;2022-07-10T00:05:32;16.70;;;13.27;;
20415;SDS011;10367;52.202;5.996;2022-07-10T00:08:02;12.53;;;11.63;;
20415;SDS011;10367;52.202;5.996;2022-07-10T00:10:31;14.93;;;13.37;;
20415;SDS011;10367;52.202;5.996;2022-07-10T00:13:01;13.60;;;12.17;;
20415;SDS011;10367;52.202;5.996;2022-07-10T00:15:30;15.47;;;14.00;;
20415;SDS011;10367;52.202;5.996;2022-07-10T00:18:00;12.77;;;11.53;;
20415;SDS011;10367;52.202;5.996;2022-07-10T00:20:28;15.00;;;13.50;;
20415;SDS011;10367;52.202;5.996;2022-07-10T00:22:57;13.27;;;12.13;;
20415;SDS011;10367;52.202;5.996;2022-07-10T00:25:27;14.80;;;13.23;;
20415;SDS011;10367;52.202;5.996;2022-07-10T00:27:57;14.87;;;13.47;;
20415;SDS011;10367;52.202;5.996;2022-07-10T00:30:27;13.90;;;12.57;;
20415;SDS011;10367;52.202;5.996;2022-07-10T00:32:56;13.97;;;12.67;;
20415;SDS011;10367;52.202;5.996;2022-07-10T00:35:26;15.37;;;13.93;;
20415;SDS011;10367;52.202;5.996;2022-07-10T00:37:55;12.53;;;11.73;;
20415;SDS011;10367;52.202;5.996;2022-07-10T00:40:23;14.13;;;12.70;;
20415;SDS011;10367;52.202;5.996;2022-07-10T00:42:52;15.17;;;13.63;;
20415;SDS011;10367;52.202;5.996;2022-07-10T00:45:21;13.37;;;12.30;;
20415;SDS011;10367;52.202;5.996;2022-07-10T00:47:51;13.67;;;12.37;;
20415;SDS011;10367;52.202;5.996;2022-07-10T00:50:19;14.00;;;12.53;;
20415;SDS011;10367;52.202;5.996;2022-07-10T00:52:48;13.63;;;12.30;;
20415;SDS011;10367;52.202;5.996;2022-07-10T00:55:17;17.17;;;12.60;;
20415;SDS011;10367;52.202;5.996;2022-07-10T00:57:46;14.73;;;13.07;;
20415;SDS011;10367;52.202;5.996;2022-07-10T01:00:16;13.17;;;11.93;;
20415;SDS011;10367;52.202;5.996;2022-07-10T01:02:45;20.33;;;14.33;;
20415;SDS011;10367;52.202;5.996;2022-07-10T01:05:15;11.53;;;10.40;;
20415;SDS011;10367;52.202;5.996;2022-07-10T01:07:44;12.37;;;11.30;;
20415;SDS011;10367;52.202;5.996;2022-07-10T01:10:13;12.63;;;11.33;;
20415;SDS011;10367;52.202;5.996;2022-07-10T01:12:41;14.53;;;12.93;;
20415;SDS011;10367;52.202;5.996;2022-07-10T01:15:11;12.53;;;11.30;;
20415;SDS011;10367;52.202;5.996;2022-07-10T01:17:40;14.50;;;13.07;;
20415;SDS011;10367;52.202;5.996;2022-07-10T01:20:10;12.73;;;11.50;;
20415;SDS011;10367;52.202;5.996;2022-07-10T01:22:40;15.63;;;13.30;;
20415;SDS011;10367;52.202;5.996;2022-07-10T01:25:09;13.00;;;11.87;;
20415;SDS011;10367;52.202;5.996;2022-07-10T01:27:38;13.90;;;12.50;;
20415;SDS011;10367;52.202;5.996;2022-07-10T01:30:08;14.13;;;12.67;;
20415;SDS011;10367;52.202;5.996;2022-07-10T01:32:37;15.87;;;13.93;;
20415;SDS011;10367;52.202;5.996;2022-07-10T01:35:07;13.37;;;12.13;;
20415;SDS011;10367;52.202;5.996;2022-07-10T01:37:36;14.07;;;12.73;;
20415;SDS011;10367;52.202;5.996;2022-07-10T01:40:07;14.50;;;11.90;;
20415;SDS011;10367;52.202;5.996;2022-07-10T01:42:37;14.80;;;12.80;;
20415;SDS011;10367;52.202;5.996;2022-07-10T01:45:06;12.57;;;11.50;;
20415;SDS011;10367;52.202;5.996;2022-07-10T01:47:36;14.07;;;12.67;;
20415;SDS011;10367;52.202;5.996;2022-07-10T01:50:05;13.50;;;12.30;;
20415;SDS011;10367;52.202;5.996;2022-07-10T01:52:34;14.33;;;12.93;;
20415;SDS011;10367;52.202;5.996;2022-07-10T01:55:03;16.83;;;12.63;;
20415;SDS011;10367;52.202;5.996;2022-07-10T01:57:34;13.33;;;12.27;;
20415;SDS011;10367;52.202;5.996;2022-07-10T02:00:03;14.43;;;12.93;;
20415;SDS011;10367;52.202;5.996;2022-07-10T02:02:34;13.57;;;12.33;;
20415;SDS011;10367;52.202;5.996;2022-07-10T02:05:03;13.80;;;12.40;;
20415;SDS011;10367;52.202;5.996;2022-07-10T02:07:32;15.23;;;11.73;;
20415;SDS011;10367;52.202;5.996;2022-07-10T02:10:00;13.17;;;11.87;;
20415;SDS011;10367;52.202;5.996;2022-07-10T02:12:29;12.37;;;11.27;;
20415;SDS011;10367;52.202;5.996;2022-07-10T02:14:59;14.07;;;12.60;;
20415;SDS011;10367;52.202;5.996;2022-07-10T02:17:29;14.00;;;12.60;;
20415;SDS011;10367;52.202;5.996;2022-07-10T02:19:57;14.23;;;11.90;;
20415;SDS011;10367;52.202;5.996;2022-07-10T02:22:26;13.23;;;12.10;;
20415;SDS011;10367;52.202;5.996;2022-07-10T02:24:54;20.50;;;12.87;;
20415;SDS011;10367;52.202;5.996;2022-07-10T02:27:23;13.43;;;12.07;;
20415;SDS011;10367;52.202;5.996;2022-07-10T02:29:51;15.23;;;13.80;;
20415;SDS011;10367;52.202;5.996;2022-07-10T02:32:21;12.63;;;11.53;;
20415;SDS011;10367;52.202;5.996;2022-07-10T02:34:50;14.00;;;12.50;;
20415;SDS011;10367;52.202;5.996;2022-07-10T02:37:19;12.23;;;11.33;;
20415;SDS011;10367;52.202;5.996;2022-07-10T02:39:47;13.47;;;12.10;;
20415;SDS011;10367;52.202;5.996;2022-07-10T02:42:17;12.47;;;11.37;;
20415;SDS011;10367;52.202;5.996;2022-07-10T02:44:46;12.77;;;11.60;;
20415;SDS011;10367;52.202;5.996;2022-07-10T02:47:15;13.93;;;12.63;;
20415;SDS011;10367;52.202;5.996;2022-07-10T02:49:45;13.40;;;12.00;;
20415;SDS011;10367;52.202;5.996;2022-07-10T02:52:13;14.50;;;12.10;;
20415;SDS011;10367;52.202;5.996;2022-07-10T02:54:42;13.20;;;11.87;;
20415;SDS011;10367;52.202;5.996;2022-07-10T02:57:11;13.03;;;11.87;;
20415;SDS011;10367;52.202;5.996;2022-07-10T02:59:40;13.97;;;12.10;;
20415;SDS011;10367;52.202;5.996;2022-07-10T03:02:08;12.90;;;11.77;;
20415;SDS011;10367;52.202;5.996;2022-07-10T03:04:37;13.00;;;11.77;;
20415;SDS011;10367;52.202;5.996;2022-07-10T03:07:07;14.57;;;13.23;;
20415;SDS011;10367;52.202;5.996;2022-07-10T03:09:36;13.03;;;11.83;;
20415;SDS011;10367;52.202;5.996;2022-07-10T03:12:05;13.53;;;12.43;;
20415;SDS011;10367;52.202;5.996;2022-07-10T03:14:34;13.80;;;12.40;;
20415;SDS011;10367;52.202;5.996;2022-07-10T03:17:04;13.93;;;12.87;;
20415;SDS011;10367;52.202;5.996;2022-07-10T03:19:32;15.20;;;12.63;;
20415;SDS011;10367;52.202;5.996;2022-07-10T03:22:01;13.90;;;12.67;;
20415;SDS011;10367;52.202;5.996;2022-07-10T03:24:31;14.00;;;11.90;;
20415;SDS011;10367;52.202;5.996;2022-07-10T03:27:00;20.80;;;14.43;;
20415;SDS011;10367;52.202;5.996;2022-07-10T03:29:29;16.43;;;14.23;;
20415;SDS011;10367;52.202;5.996;2022-07-10T03:31:57;22.50;;;15.03;;
20415;SDS011;10367;52.202;5.996;2022-07-10T03:34:26;14.83;;;13.37;;
20415;SDS011;10367;52.202;5.996;2022-07-10T03:36:55;17.67;;;13.93;;
20415;SDS011;10367;52.202;5.996;2022-07-10T03:39:23;13.97;;;11.77;;
20415;SDS011;10367;52.202;5.996;2022-07-10T03:41:53;15.40;;;13.83;;
20415;SDS011;10367;52.202;5.996;2022-07-10T03:44:22;12.80;;;11.80;;
20415;SDS011;10367;52.202;5.996;2022-07-10T03:46:50;17.20;;;13.40;;
20415;SDS011;10367;52.202;5.996;2022-07-10T03:49:19;12.00;;;11.07;;
20415;SDS011;10367;52.202;5.996;2022-07-10T03:51:48;12.10;;;11.40;;
20415;SDS011;10367;52.202;5.996;2022-07-10T03:54:17;13.57;;;12.40;;
20415;SDS011;10367;52.202;5.996;2022-07-10T03:56:46;14.13;;;12.93;;
20415;SDS011;10367;52.202;5.996;2022-07-10T03:59:33;13.73;;;12.30;;
20415;SDS011;10367;52.202;5.996;2022-07-10T04:02:02;14.30;;;12.27;;
20415;SDS011;10367;52.202;5.996;2022-07-10T04:04:31;13.77;;;12.33;;
20415;SDS011;10367;52.202;5.996;2022-07-10T04:07:00;13.87;;;12.57;;
20415;SDS011;10367;52.202;5.996;2022-07-10T04:09:30;15.60;;;12.87;;
20415;SDS011;10367;52.202;5.996;2022-07-10T04:11:59;14.23;;;12.77;;
20415;SDS011;10367;52.202;5.996;2022-07-10T04:14:28;13.00;;;12.00;;
20415;SDS011;10367;52.202;5.996;2022-07-10T04:16:58;16.77;;;13.77;;
20415;SDS011;10367;52.202;5.996;2022-07-10T04:19:26;14.30;;;12.27;;
20415;SDS011;10367;52.202;5.996;2022-07-10T04:21:55;13.83;;;12.50;;
20415;SDS011;10367;52.202;5.996;2022-07-10T04:24:24;13.53;;;12.17;;
20415;SDS011;10367;52.202;5.996;2022-07-10T04:26:52;17.10;;;14.00;;
20415;SDS011;10367;52.202;5.996;2022-07-10T04:29:21;14.97;;;12.10;;
20415;SDS011;10367;52.202;5.996;2022-07-10T04:31:50;14.73;;;13.27;;
20415;SDS011;10367;52.202;5.996;2022-07-10T04:34:20;12.53;;;11.47;;
20415;SDS011;10367;52.202;5.996;2022-07-10T04:36:49;12.50;;;11.40;;
20415;SDS011;10367;52.202;5.996;2022-07-10T04:39:17;12.27;;;11.27;;
20415;SDS011;10367;52.202;5.996;2022-07-10T04:41:46;12.30;;;11.37;;
20415;SDS011;10367;52.202;5.996;2022-07-10T04:44:14;14.33;;;13.07;;
20415;SDS011;10367;52.202;5.996;2022-07-10T04:46:43;12.63;;;11.53;;
20415;SDS011;10367;52.202;5.996;2022-07-10T04:49:12;12.67;;;11.80;;
20415;SDS011;10367;52.202;5.996;2022-07-10T04:51:42;14.07;;;12.67;;
20415;SDS011;10367;52.202;5.996;2022-07-10T04:54:12;13.47;;;12.20;;
20415;SDS011;10367;52.202;5.996;2022-07-10T04:56:41;12.87;;;11.93;;
20415;SDS011;10367;52.202;5.996;2022-07-10T04:59:10;13.30;;;12.10;;
20415;SDS011;10367;52.202;5.996;2022-07-10T05:01:39;15.07;;;13.53;;
20415;SDS011;10367;52.202;5.996;2022-07-10T05:04:07;15.50;;;14.00;;
20415;SDS011;10367;52.202;5.996;2022-07-10T05:06:36;14.50;;;13.20;;
20415;SDS011;10367;52.202;5.996;2022-07-10T05:09:06;16.67;;;14.33;;
20415;SDS011;10367;52.202;5.996;2022-07-10T05:11:35;14.87;;;13.33;;
20415;SDS011;10367;52.202;5.996;2022-07-10T05:14:03;14.67;;;13.33;;
20415;SDS011;10367;52.202;5.996;2022-07-10T05:16:32;13.37;;;12.30;;
20415;SDS011;10367;52.202;5.996;2022-07-10T05:19:01;15.97;;;14.37;;
20415;SDS011;10367;52.202;5.996;2022-07-10T05:21:29;14.30;;;13.10;;
20415;SDS011;10367;52.202;5.996;2022-07-10T05:23:58;14.40;;;13.13;;
20415;SDS011;10367;52.202;5.996;2022-07-10T05:26:28;14.97;;;12.77;;
20415;SDS011;10367;52.202;5.996;2022-07-10T05:28:56;17.93;;;15.50;;
20415;SDS011;10367;52.202;5.996;2022-07-10T05:31:25;14.87;;;13.67;;
20415;SDS011;10367;52.202;5.996;2022-07-10T05:33:54;17.00;;;14.60;;
20415;SDS011;10367;52.202;5.996;2022-07-10T05:36:22;14.57;;;13.43;;
20415;SDS011;10367;52.202;5.996;2022-07-10T05:38:51;22.63;;;15.57;;
20415;SDS011;10367;52.202;5.996;2022-07-10T05:41:20;25.60;;;16.50;;
20415;SDS011;10367;52.202;5.996;2022-07-10T05:43:50;18.10;;;14.50;;
20415;SDS011;10367;52.202;5.996;2022-07-10T05:46:19;15.60;;;14.00;;
20415;SDS011;10367;52.202;5.996;2022-07-10T05:48:49;16.87;;;13.47;;
20415;SDS011;10367;52.202;5.996;2022-07-10T05:51:17;18.73;;;13.47;;
20415;SDS011;10367;52.202;5.996;2022-07-10T05:53:58;18.10;;;13.87;;
20415;SDS011;10367;52.202;5.996;2022-07-10T05:56:27;15.63;;;12.63;;
20415;SDS011;10367;52.202;5.996;2022-07-10T05:58:58;19.47;;;16.03;;
20415;SDS011;10367;52.202;5.996;2022-07-10T06:01:27;18.50;;;16.07;;
20415;SDS011;10367;52.202;5.996;2022-07-10T06:03:56;15.27;;;13.70;;
20415;SDS011;10367;52.202;5.996;2022-07-10T06:06:24;15.23;;;13.87;;
20415;SDS011;10367;52.202;5.996;2022-07-10T06:08:53;16.23;;;14.63;;
20415;SDS011;10367;52.202;5.996;2022-07-10T06:11:22;18.83;;;13.80;;
20415;SDS011;10367;52.202;5.996;2022-07-10T06:13:50;16.10;;;14.50;;
20415;SDS011;10367;52.202;5.996;2022-07-10T06:16:20;13.60;;;12.23;;
20415;SDS011;10367;52.202;5.996;2022-07-10T06:18:49;13.40;;;12.27;;
20415;SDS011;10367;52.202;5.996;2022-07-10T06:21:18;14.50;;;13.07;;
20415;SDS011;10367;52.202;5.996;2022-07-10T06:23:48;17.47;;;13.10;;
20415;SDS011;10367;52.202;5.996;2022-07-10T06:26:17;13.57;;;12.17;;
20415;SDS011;10367;52.202;5.996;2022-07-10T06:28:46;15.80;;;14.20;;
20415;SDS011;10367;52.202;5.996;2022-07-10T06:31:15;14.90;;;13.63;;
20415;SDS011;10367;52.202;5.996;2022-07-10T06:33:45;15.33;;;13.77;;
20415;SDS011;10367;52.202;5.996;2022-07-10T06:36:13;16.27;;;14.73;;
20415;SDS011;10367;52.202;5.996;2022-07-10T06:38:48;16.73;;;14.63;;
20415;SDS011;10367;52.202;5.996;2022-07-10T06:41:17;15.40;;;13.97;;
20415;SDS011;10367;52.202;5.996;2022-07-10T06:43:46;15.67;;;14.13;;
20415;SDS011;10367;52.202;5.996;2022-07-10T06:46:14;15.87;;;14.40;;
20415;SDS011;10367;52.202;5.996;2022-07-10T06:48:44;15.20;;;13.60;;
20415;SDS011;10367;52.202;5.996;2022-07-10T06:51:12;13.53;;;12.47;;
20415;SDS011;10367;52.202;5.996;2022-07-10T06:53:44;15.47;;;13.97;;
20415;SDS011;10367;52.202;5.996;2022-07-10T06:56:13;14.17;;;12.73;;
20415;SDS011;10367;52.202;5.996;2022-07-10T06:58:43;13.50;;;12.37;;
20415;SDS011;10367;52.202;5.996;2022-07-10T07:01:11;14.33;;;13.07;;
20415;SDS011;10367;52.202;5.996;2022-07-10T07:03:40;14.40;;;13.13;;
20415;SDS011;10367;52.202;5.996;2022-07-10T07:06:10;15.47;;;13.67;;
20415;SDS011;10367;52.202;5.996;2022-07-10T07:08:39;12.70;;;11.60;;
20415;SDS011;10367;52.202;5.996;2022-07-10T07:11:09;13.40;;;12.20;;
20415;SDS011;10367;52.202;5.996;2022-07-10T07:13:37;12.87;;;11.90;;
20415;SDS011;10367;52.202;5.996;2022-07-10T07:16:06;14.60;;;13.10;;
20415;SDS011;10367;52.202;5.996;2022-07-10T07:18:36;13.60;;;12.33;;
20415;SDS011;10367;52.202;5.996;2022-07-10T07:21:15;11.77;;;10.80;;
20415;SDS011;10367;52.202;5.996;2022-07-10T07:24:01;13.57;;;12.27;;
20415;SDS011;10367;52.202;5.996;2022-07-10T07:26:30;13.90;;;12.53;;
20415;SDS011;10367;52.202;5.996;2022-07-10T07:28:59;16.70;;;13.67;;
20415;SDS011;10367;52.202;5.996;2022-07-10T07:31:28;14.00;;;12.83;;
20415;SDS011;10367;52.202;5.996;2022-07-10T07:33:57;15.20;;;13.67;;
20415;SDS011;10367;52.202;5.996;2022-07-10T07:36:27;14.20;;;12.90;;
20415;SDS011;10367;52.202;5.996;2022-07-10T07:38:57;16.60;;;13.87;;
20415;SDS011;10367;52.202;5.996;2022-07-10T07:41:26;13.87;;;12.53;;
20415;SDS011;10367;52.202;5.996;2022-07-10T07:43:55;13.67;;;12.53;;
20415;SDS011;10367;52.202;5.996;2022-07-10T07:46:23;13.37;;;12.00;;
20415;SDS011;10367;52.202;5.996;2022-07-10T07:48:52;15.30;;;13.67;;
20415;SDS011;10367;52.202;5.996;2022-07-10T07:51:21;13.83;;;12.57;;
20415;SDS011;10367;52.202;5.996;2022-07-10T07:53:51;14.47;;;13.10;;
20415;SDS011;10367;52.202;5.996;2022-07-10T07:56:19;12.37;;;11.43;;
20415;SDS011;10367;52.202;5.996;2022-07-10T07:58:48;13.83;;;12.43;;
20415;SDS011;10367;52.202;5.996;2022-07-10T08:01:17;13.97;;;12.73;;
20415;SDS011;10367;52.202;5.996;2022-07-10T08:03:46;13.63;;;12.43;;
20415;SDS011;10367;52.202;5.996;2022-07-10T08:06:34;13.47;;;11.80;;
20415;SDS011;10367;52.202;5.996;2022-07-10T08:09:04;18.40;;;14.33;;
20415;SDS011;10367;52.202;5.996;2022-07-10T08:11:33;14.27;;;12.87;;
20415;SDS011;10367;52.202;5.996;2022-07-10T08:14:01;17.60;;;14.27;;
20415;SDS011;10367;52.202;5.996;2022-07-10T08:16:30;16.00;;;14.37;;
20415;SDS011;10367;52.202;5.996;2022-07-10T08:18:59;16.07;;;14.23;;
20415;SDS011;10367;52.202;5.996;2022-07-10T08:21:27;14.17;;;12.67;;
20415;SDS011;10367;52.202;5.996;2022-07-10T08:23:57;16.37;;;13.83;;
20415;SDS011;10367;52.202;5.996;2022-07-10T08:26:27;14.80;;;13.60;;
20415;SDS011;10367;52.202;5.996;2022-07-10T08:28:56;19.23;;;14.83;;
20415;SDS011;10367;52.202;5.996;2022-07-10T08:31:24;15.20;;;13.63;;
20415;SDS011;10367;52.202;5.996;2022-07-10T08:33:53;13.53;;;12.20;;
20415;SDS011;10367;52.202;5.996;2022-07-10T08:36:22;14.13;;;12.80;;
20415;SDS011;10367;52.202;5.996;2022-07-10T08:39:10;15.70;;;12.77;;
20415;SDS011;10367;52.202;5.996;2022-07-10T08:41:41;15.10;;;13.60;;
20415;SDS011;10367;52.202;5.996;2022-07-10T08:44:13;14.23;;;12.93;;
20415;SDS011;10367;52.202;5.996;2022-07-10T08:46:42;14.03;;;12.67;;
20415;SDS011;10367;52.202;5.996;2022-07-10T08:49:11;16.77;;;14.53;;
20415;SDS011;10367;52.202;5.996;2022-07-10T08:51:40;13.93;;;12.87;;
20415;SDS011;10367;52.202;5.996;2022-07-10T08:54:13;13.53;;;12.43;;
20415;SDS011;10367;52.202;5.996;2022-07-10T08:56:49;13.73;;;12.73;;
20415;SDS011;10367;52.202;5.996;2022-07-10T08:59:18;14.67;;;13.43;;
20415;SDS011;10367;52.202;5.996;2022-07-10T09:01:55;15.00;;;13.67;;
20415;SDS011;10367;52.202;5.996;2022-07-10T09:04:25;15.80;;;14.27;;
20415;SDS011;10367;52.202;5.996;2022-07-10T09:06:54;17.00;;;15.33;;
20415;SDS011;10367;52.202;5.996;2022-07-10T09:09:23;15.80;;;14.37;;
20415;SDS011;10367;52.202;5.996;2022-07-10T09:11:56;15.63;;;14.33;;
20415;SDS011;10367;52.202;5.996;2022-07-10T09:14:26;14.07;;;12.83;;
20415;SDS011;10367;52.202;5.996;2022-07-10T09:17:01;17.90;;;14.90;;
20415;SDS011;10367;52.202;5.996;2022-07-10T09:19:30;15.63;;;13.43;;
20415;SDS011;10367;52.202;5.996;2022-07-10T09:22:01;16.83;;;15.20;;
20415;SDS011;10367;52.202;5.996;2022-07-10T09:24:37;16.23;;;14.83;;
20415;SDS011;10367;52.202;5.996;2022-07-10T09:27:08;15.93;;;14.50;;
20415;SDS011;10367;52.202;5.996;2022-07-10T09:29:46;17.17;;;15.73;;
20415;SDS011;10367;52.202;5.996;2022-07-10T09:32:18;15.33;;;14.00;;
20415;SDS011;10367;52.202;5.996;2022-07-10T09:34:47;15.53;;;14.20;;
20415;SDS011;10367;52.202;5.996;2022-07-10T09:37:38;15.33;;;14.07;;
20415;SDS011;10367;52.202;5.996;2022-07-10T09:40:09;16.07;;;14.70;;
20415;SDS011;10367;52.202;5.996;2022-07-10T09:42:40;14.83;;;13.70;;
20415;SDS011;10367;52.202;5.996;2022-07-10T09:45:18;16.33;;;14.70;;
20415;SDS011;10367;52.202;5.996;2022-07-10T09:47:55;16.40;;;15.07;;
20415;SDS011;10367;52.202;5.996;2022-07-10T09:50:26;15.67;;;14.37;;
20415;SDS011;10367;52.202;5.996;2022-07-10T09:52:57;18.13;;;16.43;;
20415;SDS011;10367;52.202;5.996;2022-07-10T09:55:28;16.40;;;15.20;;
20415;SDS011;10367;52.202;5.996;2022-07-10T09:57:59;17.77;;;16.20;;
20415;SDS011;10367;52.202;5.996;2022-07-10T10:00:30;15.93;;;14.70;;
20415;SDS011;10367;52.202;5.996;2022-07-10T10:03:00;18.63;;;16.73;;
20415;SDS011;10367;52.202;5.996;2022-07-10T10:05:34;18.13;;;16.43;;
20415;SDS011;10367;52.202;5.996;2022-07-10T10:08:07;18.30;;;16.47;;
20415;SDS011;10367;52.202;5.996;2022-07-10T10:10:45;18.77;;;15.30;;
20415;SDS011;10367;52.202;5.996;2022-07-10T10:13:21;14.97;;;13.97;;
20415;SDS011;10367;52.202;5.996;2022-07-10T10:15:51;16.17;;;14.97;;
20415;SDS011;10367;52.202;5.996;2022-07-10T10:18:20;16.27;;;14.87;;
20415;SDS011;10367;52.202;5.996;2022-07-10T10:20:51;16.90;;;15.60;;
20415;SDS011;10367;52.202;5.996;2022-07-10T10:23:21;15.20;;;14.20;;
20415;SDS011;10367;52.202;5.996;2022-07-10T10:25:50;15.60;;;14.53;;
20415;SDS011;10367;52.202;5.996;2022-07-10T10:28:23;16.97;;;15.60;;
20415;SDS011;10367;52.202;5.996;2022-07-10T10:30:54;16.83;;;15.53;;
20415;SDS011;10367;52.202;5.996;2022-07-10T10:33:44;15.80;;;14.50;;
20415;SDS011;10367;52.202;5.996;2022-07-10T10:36:22;15.67;;;14.40;;
20415;SDS011;10367;52.202;5.996;2022-07-10T10:39:14;18.77;;;17.03;;
20415;SDS011;10367;52.202;5.996;2022-07-10T10:41:46;17.10;;;15.43;;
20415;SDS011;10367;52.202;5.996;2022-07-10T10:44:24;16.77;;;15.37;;
20415;SDS011;10367;52.202;5.996;2022-07-10T10:46:56;17.87;;;16.47;;
20415;SDS011;10367;52.202;5.996;2022-07-10T10:49:48;16.67;;;15.57;;
20415;SDS011;10367;52.202;5.996;2022-07-10T10:52:23;17.37;;;16.10;;
20415;SDS011;10367;52.202;5.996;2022-07-10T10:57:41;17.27;;;16.17;;
20415;SDS011;10367;52.202;5.996;2022-07-10T11:00:30;19.20;;;17.57;;
20415;SDS011;10367;52.202;5.996;2022-07-10T11:03:18;20.40;;;18.70;;
20415;SDS011;10367;52.202;5.996;2022-07-10T11:05:48;17.33;;;16.13;;
20415;SDS011;10367;52.202;5.996;2022-07-10T11:08:37;16.93;;;15.83;;
20415;SDS011;10367;52.202;5.996;2022-07-10T11:14:07;19.47;;;18.03;;
20415;SDS011;10367;52.202;5.996;2022-07-10T11:19:26;18.10;;;16.70;;
20415;SDS011;10367;52.202;5.996;2022-07-10T11:21:58;20.77;;;19.07;;
20415;SDS011;10367;52.202;5.996;2022-07-10T11:24:49;18.63;;;17.10;;
20415;SDS011;10367;52.202;5.996;2022-07-10T11:27:34;17.97;;;16.50;;
20415;SDS011;10367;52.202;5.996;2022-07-10T11:30:16;17.07;;;15.93;;
20415;SDS011;10367;52.202;5.996;2022-07-10T11:32:46;18.40;;;16.80;;
20415;SDS011;10367;52.202;5.996;2022-07-10T11:35:15;16.33;;;15.33;;
20415;SDS011;10367;52.202;5.996;2022-07-10T11:37:49;18.07;;;16.77;;
20415;SDS011;10367;52.202;5.996;2022-07-10T11:40:19;16.53;;;15.33;;
20415;SDS011;10367;52.202;5.996;2022-07-10T11:42:52;16.87;;;15.47;;
20415;SDS011;10367;52.202;5.996;2022-07-10T11:45:29;18.63;;;17.20;;
20415;SDS011;10367;52.202;5.996;2022-07-10T11:48:00;17.57;;;15.97;;
20415;SDS011;10367;52.202;5.996;2022-07-10T11:50:33;19.37;;;17.87;;
20415;SDS011;10367;52.202;5.996;2022-07-10T11:53:03;18.90;;;17.27;;
20415;SDS011;10367;52.202;5.996;2022-07-10T11:55:32;17.77;;;16.37;;
20415;SDS011;10367;52.202;5.996;2022-07-10T11:58:13;19.30;;;17.47;;
20415;SDS011;10367;52.202;5.996;2022-07-10T12:00:43;17.77;;;16.37;;
20415;SDS011;10367;52.202;5.996;2022-07-10T12:03:18;20.27;;;18.43;;
20415;SDS011;10367;52.202;5.996;2022-07-10T12:05:55;18.33;;;16.63;;
20415;SDS011;10367;52.202;5.996;2022-07-10T12:08:29;20.17;;;18.37;;
20415;SDS011;10367;52.202;5.996;2022-07-10T12:10:57;20.83;;;18.87;;
20415;SDS011;10367;52.202;5.996;2022-07-10T12:13:26;18.60;;;16.80;;
20415;SDS011;10367;52.202;5.996;2022-07-10T12:15:54;19.43;;;17.77;;
20415;SDS011;10367;52.202;5.996;2022-07-10T12:18:25;17.80;;;16.67;;
20415;SDS011;10367;52.202;5.996;2022-07-10T12:20:55;19.50;;;17.93;;
20415;SDS011;10367;52.202;5.996;2022-07-10T12:23:25;17.73;;;16.43;;
20415;SDS011;10367;52.202;5.996;2022-07-10T12:25:56;20.97;;;18.97;;
20415;SDS011;10367;52.202;5.996;2022-07-10T12:28:24;19.93;;;18.10;;
20415;SDS011;10367;52.202;5.996;2022-07-10T12:30:53;18.07;;;16.80;;
20415;SDS011;10367;52.202;5.996;2022-07-10T12:33:22;19.03;;;17.43;;
20415;SDS011;10367;52.202;5.996;2022-07-10T12:35:53;20.90;;;18.90;;
20415;SDS011;10367;52.202;5.996;2022-07-10T12:38:24;22.00;;;20.10;;
20415;SDS011;10367;52.202;5.996;2022-07-10T12:41:05;21.90;;;19.77;;
20415;SDS011;10367;52.202;5.996;2022-07-10T12:43:35;22.10;;;20.00;;
20415;SDS011;10367;52.202;5.996;2022-07-10T12:46:07;22.57;;;20.30;;
20415;SDS011;10367;52.202;5.996;2022-07-10T12:48:39;19.83;;;18.43;;
20415;SDS011;10367;52.202;5.996;2022-07-10T12:51:19;21.87;;;19.57;;
20415;SDS011;10367;52.202;5.996;2022-07-10T12:53:51;19.47;;;18.03;;
20415;SDS011;10367;52.202;5.996;2022-07-10T12:56:30;18.93;;;17.53;;
20415;SDS011;10367;52.202;5.996;2022-07-10T12:59:00;20.93;;;18.77;;
20415;SDS011;10367;52.202;5.996;2022-07-10T13:01:41;19.27;;;17.70;;
20415;SDS011;10367;52.202;5.996;2022-07-10T13:04:11;20.20;;;18.53;;
20415;SDS011;10367;52.202;5.996;2022-07-10T13:06:40;19.77;;;18.07;;
20415;SDS011;10367;52.202;5.996;2022-07-10T13:09:20;21.03;;;19.20;;
20415;SDS011;10367;52.202;5.996;2022-07-10T13:11:50;17.90;;;16.70;;
20415;SDS011;10367;52.202;5.996;2022-07-10T13:14:19;18.10;;;16.77;;
20415;SDS011;10367;52.202;5.996;2022-07-10T13:16:49;16.63;;;15.63;;
20415;SDS011;10367;52.202;5.996;2022-07-10T13:19:19;18.33;;;17.03;;
20415;SDS011;10367;52.202;5.996;2022-07-10T13:21:47;20.47;;;18.77;;
20415;SDS011;10367;52.202;5.996;2022-07-10T13:24:16;19.20;;;17.70;;
20415;SDS011;10367;52.202;5.996;2022-07-10T13:26:45;18.10;;;16.83;;
20415;SDS011;10367;52.202;5.996;2022-07-10T13:29:13;18.60;;;17.20;;
20415;SDS011;10367;52.202;5.996;2022-07-10T13:31:42;19.33;;;17.93;;
20415;SDS011;10367;52.202;5.996;2022-07-10T13:34:11;19.83;;;18.23;;
20415;SDS011;10367;52.202;5.996;2022-07-10T13:36:41;18.40;;;17.00;;
20415;SDS011;10367;52.202;5.996;2022-07-10T13:39:09;20.87;;;19.00;;
20415;SDS011;10367;52.202;5.996;2022-07-10T13:41:38;18.13;;;16.83;;
20415;SDS011;10367;52.202;5.996;2022-07-10T13:44:07;20.47;;;18.80;;
20415;SDS011;10367;52.202;5.996;2022-07-10T13:46:41;18.30;;;16.90;;
20415;SDS011;10367;52.202;5.996;2022-07-10T13:49:10;20.93;;;19.17;;
20415;SDS011;10367;52.202;5.996;2022-07-10T13:51:40;19.07;;;17.73;;
20415;SDS011;10367;52.202;5.996;2022-07-10T13:54:09;20.57;;;19.00;;
20415;SDS011;10367;52.202;5.996;2022-07-10T13:56:37;19.57;;;17.97;;
20415;SDS011;10367;52.202;5.996;2022-07-10T13:59:06;21.10;;;19.43;;
20415;SDS011;10367;52.202;5.996;2022-07-10T14:01:35;17.93;;;16.73;;
20415;SDS011;10367;52.202;5.996;2022-07-10T14:04:04;20.93;;;19.23;;
20415;SDS011;10367;52.202;5.996;2022-07-10T14:06:32;19.70;;;18.27;;
20415;SDS011;10367;52.202;5.996;2022-07-10T14:09:02;21.30;;;19.60;;
20415;SDS011;10367;52.202;5.996;2022-07-10T14:11:31;20.27;;;18.53;;
20415;SDS011;10367;52.202;5.996;2022-07-10T14:14:00;19.33;;;17.93;;
20415;SDS011;10367;52.202;5.996;2022-07-10T14:16:29;20.10;;;18.60;;
20415;SDS011;10367;52.202;5.996;2022-07-10T14:18:58;21.60;;;19.90;;
20415;SDS011;10367;52.202;5.996;2022-07-10T14:21:26;21.97;;;20.17;;
20415;SDS011;10367;52.202;5.996;2022-07-10T14:23:55;21.27;;;19.43;;
20415;SDS011;10367;52.202;5.996;2022-07-10T14:26:25;19.57;;;18.27;;
20415;SDS011;10367;52.202;5.996;2022-07-10T14:28:54;20.57;;;19.13;;
20415;SDS011;10367;52.202;5.996;2022-07-10T14:31:23;19.50;;;18.20;;
20415;SDS011;10367;52.202;5.996;2022-07-10T14:33:51;20.67;;;19.33;;
20415;SDS011;10367;52.202;5.996;2022-07-10T14:36:20;20.93;;;19.60;;
20415;SDS011;10367;52.202;5.996;2022-07-10T14:38:53;20.07;;;18.73;;
20415;SDS011;10367;52.202;5.996;2022-07-10T14:41:21;19.83;;;18.60;;
20415;SDS011;10367;52.202;5.996;2022-07-10T14:43:52;20.63;;;19.23;;
20415;SDS011;10367;52.202;5.996;2022-07-10T14:46:21;20.10;;;18.50;;
20415;SDS011;10367;52.202;5.996;2022-07-10T14:48:50;20.80;;;19.50;;